createdAt,value
2019-01-03T00:02:05.402Z,21.87
2019-01-03T00:04:35.937Z,26.03
2019-01-03T00:07:18.329Z,22.00
2019-01-03T00:09:54.691Z,24.40
2019-01-03T00:12:40.623Z,23.17
2019-01-03T00:15:17.120Z,31.50
2019-01-03T00:17:44.539Z,20.80
2019-01-03T00:20:17.986Z,19.80
2019-01-03T00:23:00.468Z,21.80
2019-01-03T00:25:27.895Z,23.07
2019-01-03T00:28:13.488Z,25.57
2019-01-03T00:30:40.824Z,26.27
2019-01-03T00:33:14.042Z,20.27
2019-01-03T00:35:53.575Z,26.13
2019-01-03T00:38:20.972Z,24.67
2019-01-03T00:40:54.324Z,27.97
2019-01-03T00:43:21.709Z,29.40
2019-01-03T00:45:52.093Z,29.70
2019-01-03T00:48:28.425Z,19.93
2019-01-03T00:50:55.837Z,22.37
2019-01-03T00:53:41.579Z,22.37
2019-01-03T00:56:08.969Z,26.40
2019-01-03T00:58:36.385Z,29.73
2019-01-03T01:01:22.152Z,26.40
2019-01-03T01:04:07.511Z,21.07
2019-01-03T01:06:43.550Z,20.60
2019-01-03T01:09:16.836Z,16.30
2019-01-03T01:11:59.354Z,17.93
2019-01-03T01:14:38.787Z,23.77
2019-01-03T01:17:18.109Z,25.60
2019-01-03T01:19:51.533Z,17.63
2019-01-03T01:22:24.506Z,21.70
2019-01-03T01:25:10.319Z,21.33
2019-01-03T01:27:52.862Z,28.63
2019-01-03T01:30:20.287Z,22.50
2019-01-03T01:32:50.230Z,16.97
2019-01-03T01:35:20.367Z,19.50
2019-01-03T01:37:56.660Z,25.13
2019-01-03T01:40:42.203Z,20.33
2019-01-03T01:43:27.585Z,20.60
2019-01-03T01:46:13.366Z,21.40
2019-01-03T01:48:49.567Z,22.73
2019-01-03T01:51:19.862Z,21.73
2019-01-03T01:54:05.343Z,19.07
2019-01-03T01:56:41.663Z,20.43
2019-01-03T01:59:24.157Z,22.13
2019-01-03T02:01:51.568Z,22.77
2019-01-03T02:04:18.982Z,27.17
2019-01-03T02:07:04.573Z,23.43
2019-01-03T02:09:32.018Z,20.93
2019-01-03T02:12:17.566Z,17.17
2019-01-03T02:14:54.330Z,21.13
2019-01-03T02:17:40.034Z,22.23
2019-01-03T02:20:13.116Z,22.00
2019-01-03T02:22:49.385Z,25.83
2019-01-03T02:25:19.751Z,29.70
2019-01-03T02:27:47.143Z,21.83
2019-01-03T02:30:14.557Z,24.03
2019-01-03T02:32:59.923Z,18.50
2019-01-03T02:35:45.428Z,26.07
2019-01-03T02:38:15.961Z,19.27
2019-01-03T02:41:01.771Z,23.60
2019-01-03T02:43:47.370Z,21.73
2019-01-03T02:46:14.787Z,22.70
2019-01-03T02:48:44.840Z,29.00
2019-01-03T02:51:12.263Z,18.93
2019-01-03T02:53:42.338Z,17.80
2019-01-03T02:56:28.089Z,25.00
2019-01-03T02:59:13.754Z,23.07
2019-01-03T03:01:44.070Z,18.87
2019-01-03T03:04:23.291Z,17.93
2019-01-03T03:06:53.421Z,20.90
2019-01-03T03:09:29.928Z,22.07
2019-01-03T03:12:12.466Z,20.37
2019-01-03T03:14:45.866Z,25.43
2019-01-03T03:17:13.288Z,26.17
2019-01-03T03:19:49.451Z,20.80
2019-01-03T03:22:16.878Z,21.83
2019-01-03T03:25:02.219Z,24.87
2019-01-03T03:27:48.028Z,24.13
2019-01-03T03:30:33.551Z,26.63
2019-01-03T03:33:19.048Z,24.83
2019-01-03T03:36:04.941Z,19.70
2019-01-03T03:38:50.274Z,22.87
2019-01-03T03:41:35.872Z,19.57
2019-01-03T03:44:03.292Z,25.67
2019-01-03T03:46:30.686Z,26.60
2019-01-03T03:49:07.034Z,25.77
2019-01-03T03:51:49.715Z,28.00
2019-01-03T03:54:31.977Z,19.07
2019-01-03T03:57:17.535Z,25.87
2019-01-03T03:59:50.742Z,22.73
2019-01-03T04:02:33.219Z,21.25
2019-01-03T04:05:19.034Z,18.07
2019-01-03T04:07:52.452Z,25.47
2019-01-03T04:10:25.714Z,22.33
2019-01-03T04:12:58.703Z,21.10
2019-01-03T04:15:28.821Z,21.30
2019-01-03T04:17:56.212Z,19.50
2019-01-03T04:20:38.871Z,22.60
2019-01-03T04:23:24.352Z,20.50
2019-01-03T04:25:54.805Z,27.23
2019-01-03T04:28:28.208Z,21.30
2019-01-03T04:30:55.628Z,19.77
2019-01-03T04:33:38.303Z,24.47
2019-01-03T04:36:05.726Z,24.03
2019-01-03T04:38:36.082Z,18.07
2019-01-03T04:41:09.593Z,25.63
2019-01-03T04:43:55.204Z,24.47
2019-01-03T04:46:22.596Z,19.13
2019-01-03T04:49:07.921Z,24.43
2019-01-03T04:51:50.210Z,23.43
2019-01-03T04:54:29.657Z,23.83
2019-01-03T04:57:15.195Z,22.47
2019-01-03T05:00:00.555Z,16.57
2019-01-03T05:02:30.805Z,20.77
2019-01-03T05:05:16.270Z,19.03
2019-01-03T05:07:57.460Z,21.03
2019-01-03T05:10:25.503Z,17.80
2019-01-03T05:12:58.736Z,28.30
2019-01-03T05:15:41.194Z,21.67
2019-01-03T05:18:17.491Z,18.47
2019-01-03T05:20:47.738Z,21.07
2019-01-03T05:23:33.386Z,24.90
2019-01-03T05:26:00.804Z,21.53
2019-01-03T05:28:46.264Z,23.37
2019-01-03T05:31:22.256Z,22.67
2019-01-03T05:33:52.363Z,20.63
2019-01-03T05:36:28.662Z,18.07
2019-01-03T05:39:14.505Z,25.50
2019-01-03T05:41:44.588Z,20.40
2019-01-03T05:44:29.936Z,17.13
2019-01-03T05:47:15.457Z,22.53
2019-01-03T05:50:00.805Z,22.70
2019-01-03T05:52:28.202Z,24.17
2019-01-03T05:55:13.558Z,21.00
2019-01-03T05:57:59.568Z,22.47
2019-01-03T06:00:45.053Z,28.40
2019-01-03T06:03:15.039Z,23.83
2019-01-03T06:06:00.365Z,19.60
2019-01-03T06:08:30.574Z,22.90
2019-01-03T06:10:58.012Z,18.53
2019-01-03T06:13:43.647Z,19.33
2019-01-03T06:16:11.069Z,24.57
2019-01-03T06:18:41.114Z,29.53
2019-01-03T06:21:08.540Z,23.43
2019-01-03T06:23:48.290Z,21.40
2019-01-03T06:26:15.718Z,25.80
2019-01-03T06:29:01.010Z,27.00
2019-01-03T06:31:31.120Z,28.60
2019-01-03T06:33:58.525Z,20.20
2019-01-03T06:36:25.953Z,26.47
2019-01-03T06:38:59.082Z,24.17
2019-01-03T06:41:26.497Z,21.97
2019-01-03T06:43:59.915Z,23.90
2019-01-03T06:46:27.336Z,24.83
2019-01-03T06:48:54.742Z,23.80
2019-01-03T06:51:24.671Z,24.80
2019-01-03T06:53:52.075Z,25.93
2019-01-03T06:56:22.492Z,25.20
2019-01-03T06:59:08.292Z,24.07
2019-01-03T07:01:35.709Z,26.17
2019-01-03T07:04:09.234Z,22.53
2019-01-03T07:06:36.631Z,24.60
2019-01-03T07:09:06.759Z,25.10
2019-01-03T07:11:52.247Z,27.03
2019-01-03T07:14:20.212Z,26.77
2019-01-03T07:16:47.069Z,25.30
2019-01-03T07:19:17.401Z,26.83
2019-01-03T07:21:59.977Z,24.80
2019-01-03T07:24:30.286Z,24.17
2019-01-03T07:27:06.604Z,26.63
2019-01-03T07:29:43.064Z,24.93
2019-01-03T07:32:28.548Z,25.53
2019-01-03T07:35:14.056Z,19.17
2019-01-03T07:37:56.416Z,23.80
2019-01-03T07:40:29.537Z,17.63
2019-01-03T07:43:15.095Z,18.97
2019-01-03T07:45:42.517Z,21.03
2019-01-03T07:48:09.981Z,18.83
2019-01-03T07:50:49.219Z,20.50
2019-01-03T07:53:19.728Z,21.87
2019-01-03T07:56:05.449Z,19.40
2019-01-03T07:58:48.135Z,21.37
2019-01-03T08:01:33.600Z,20.53
2019-01-03T08:04:09.711Z,18.07
2019-01-03T08:06:49.176Z,25.30
2019-01-03T08:09:22.552Z,20.10
2019-01-03T08:12:08.361Z,20.13
2019-01-03T08:14:35.806Z,25.60
2019-01-03T08:17:18.062Z,22.73
2019-01-03T08:20:03.691Z,26.10
2019-01-03T08:22:31.097Z,26.63
2019-01-03T08:25:01.275Z,28.67
2019-01-03T08:27:40.703Z,21.50
2019-01-03T08:30:20.159Z,21.07
2019-01-03T08:33:05.841Z,22.03
2019-01-03T08:35:51.370Z,18.50
2019-01-03T08:38:24.542Z,16.37
2019-01-03T08:41:07.182Z,16.33
2019-01-03T08:43:40.300Z,18.60
2019-01-03T08:46:07.667Z,16.17
2019-01-03T08:48:35.105Z,20.93
2019-01-03T08:51:08.202Z,25.00
2019-01-03T08:53:41.444Z,24.20
2019-01-03T08:56:24.005Z,21.17
2019-01-03T08:58:53.199Z,23.40
2019-01-03T09:01:23.317Z,22.73
2019-01-03T09:04:09.124Z,20.67
2019-01-03T09:06:45.429Z,16.83
2019-01-03T09:09:15.440Z,24.20
2019-01-03T09:11:45.546Z,23.07
2019-01-03T09:14:21.769Z,20.87
2019-01-03T09:17:01.167Z,24.80
2019-01-03T09:19:34.401Z,20.90
2019-01-03T09:22:07.785Z,22.03
2019-01-03T09:24:53.322Z,26.17
2019-01-03T09:27:38.844Z,23.53
2019-01-03T09:30:12.041Z,21.40
2019-01-03T09:32:57.723Z,20.63
2019-01-03T09:35:40.129Z,19.57
2019-01-03T09:38:07.541Z,22.13
2019-01-03T09:40:46.945Z,22.50
2019-01-03T09:43:32.322Z,22.23
2019-01-03T09:45:59.730Z,20.80
2019-01-03T09:48:27.141Z,21.60
2019-01-03T09:50:54.684Z,21.70
2019-01-03T09:53:22.125Z,16.27
2019-01-03T09:55:49.515Z,19.93
2019-01-03T09:58:16.950Z,15.33
2019-01-03T10:00:44.393Z,20.50
2019-01-03T10:03:11.786Z,16.30
2019-01-03T10:05:39.194Z,23.37
2019-01-03T10:08:06.635Z,19.17
2019-01-03T10:10:34.023Z,15.77
2019-01-03T10:13:01.450Z,24.03
2019-01-03T10:15:28.860Z,18.17
2019-01-03T10:17:56.283Z,19.73
2019-01-03T10:20:23.736Z,17.00
2019-01-03T10:22:51.138Z,15.67
2019-01-03T10:25:18.538Z,16.23
2019-01-03T10:27:45.974Z,18.33
2019-01-03T10:30:13.379Z,21.93
2019-01-03T10:32:40.804Z,16.27
2019-01-03T10:35:08.185Z,14.87
2019-01-03T10:37:35.613Z,12.23
2019-01-03T10:40:03.041Z,13.37
2019-01-03T10:42:30.467Z,12.10
2019-01-03T10:44:57.871Z,13.30
2019-01-03T10:47:25.272Z,9.53
2019-01-03T10:49:52.695Z,9.80
2019-01-03T10:52:20.139Z,11.57
2019-01-03T10:54:47.540Z,13.23
2019-01-03T10:57:15.007Z,12.03
2019-01-03T10:59:42.409Z,15.83
2019-01-03T11:02:09.826Z,12.50
2019-01-03T11:04:37.248Z,14.87
2019-01-03T11:07:04.647Z,13.23
2019-01-03T11:09:32.076Z,10.43
2019-01-03T11:11:59.472Z,9.60
2019-01-03T11:14:47.602Z,9.40
2019-01-03T11:17:15.042Z,9.97
2019-01-03T11:19:42.481Z,10.40
2019-01-03T11:22:09.901Z,12.20
2019-01-03T11:24:37.331Z,14.73
2019-01-03T11:27:04.743Z,10.90
2019-01-03T11:29:32.158Z,15.50
2019-01-03T11:31:59.635Z,12.10
2019-01-03T11:34:27.030Z,13.77
2019-01-03T11:36:54.475Z,12.83
2019-01-03T11:39:21.872Z,13.17
2019-01-03T11:41:49.298Z,8.83
2019-01-03T11:44:16.701Z,11.17
2019-01-03T11:46:44.134Z,12.57
2019-01-03T11:49:11.545Z,12.83
2019-01-03T11:51:38.953Z,11.27
2019-01-03T11:54:06.370Z,8.37
2019-01-03T11:56:33.783Z,15.00
2019-01-03T11:59:01.211Z,10.80
2019-01-03T12:01:28.607Z,11.80
2019-01-03T12:03:56.019Z,9.30
2019-01-03T12:06:23.445Z,9.30
2019-01-03T12:08:50.908Z,9.17
2019-01-03T12:11:18.307Z,8.57
2019-01-03T12:13:45.740Z,8.33
2019-01-03T12:16:13.139Z,10.47
2019-01-03T12:18:40.584Z,9.87
2019-01-03T12:21:07.976Z,11.70
2019-01-03T12:23:35.385Z,12.63
2019-01-03T12:26:02.802Z,11.03
2019-01-03T12:28:30.213Z,8.17
2019-01-03T12:30:57.642Z,10.80
2019-01-03T12:33:25.072Z,10.17
2019-01-03T12:35:52.483Z,12.73
2019-01-03T12:38:19.896Z,10.63
2019-01-03T12:40:47.328Z,12.20
2019-01-03T12:43:14.727Z,8.83
2019-01-03T12:45:42.150Z,7.73
2019-01-03T12:48:09.549Z,10.23
2019-01-03T12:50:36.966Z,9.87
2019-01-03T12:53:04.358Z,14.07
2019-01-03T12:55:31.766Z,8.67
2019-01-03T12:57:59.196Z,8.27
2019-01-03T13:00:26.588Z,10.97
2019-01-03T13:02:54.018Z,13.33
2019-01-03T13:05:21.454Z,6.50
2019-01-03T13:07:48.871Z,7.83
2019-01-03T13:10:16.275Z,6.43
2019-01-03T13:12:43.698Z,6.00
2019-01-03T13:15:11.139Z,10.37
2019-01-03T13:17:38.552Z,9.40
2019-01-03T13:20:05.972Z,9.33
2019-01-03T13:22:33.371Z,9.83
2019-01-03T13:25:00.785Z,8.13
2019-01-03T13:27:28.203Z,6.13
2019-01-03T13:29:55.629Z,10.17
2019-01-03T13:32:23.041Z,9.57
2019-01-03T13:34:50.442Z,11.07
2019-01-03T13:37:17.890Z,10.13
2019-01-03T13:39:45.301Z,9.23
2019-01-03T13:42:12.682Z,8.83
2019-01-03T13:44:40.103Z,9.37
2019-01-03T13:47:07.491Z,6.50
2019-01-03T13:49:34.927Z,10.10
2019-01-03T13:52:02.354Z,6.87
2019-01-03T13:54:29.772Z,7.93
2019-01-03T13:56:57.164Z,8.87
2019-01-03T13:59:24.589Z,5.37
2019-01-03T14:01:51.983Z,8.23
2019-01-03T14:04:19.400Z,6.93
2019-01-03T14:06:46.805Z,9.63
2019-01-03T14:09:14.236Z,11.57
2019-01-03T14:11:41.686Z,10.40
2019-01-03T14:14:09.095Z,8.40
2019-01-03T14:16:36.511Z,8.13
2019-01-03T14:19:03.905Z,6.03
2019-01-03T14:21:31.337Z,9.63
2019-01-03T14:23:58.729Z,7.37
2019-01-03T14:26:26.178Z,8.37
2019-01-03T14:28:53.635Z,8.13
2019-01-03T14:31:21.023Z,7.97
2019-01-03T14:33:48.423Z,10.10
2019-01-03T14:36:15.838Z,5.70
2019-01-03T14:38:43.232Z,7.93
2019-01-03T14:41:10.643Z,5.57
2019-01-03T14:43:38.068Z,8.73
2019-01-03T14:46:05.477Z,7.23
2019-01-03T14:48:32.902Z,7.43
2019-01-03T14:51:00.328Z,7.27
2019-01-03T14:53:27.775Z,6.10
2019-01-03T14:55:55.197Z,11.60
2019-01-03T14:58:22.636Z,8.53
2019-01-03T15:00:50.035Z,8.47
2019-01-03T15:03:17.448Z,10.70
2019-01-03T15:05:44.871Z,5.27
2019-01-03T15:08:12.322Z,5.73
2019-01-03T15:10:39.714Z,7.97
2019-01-03T15:13:07.135Z,7.40
2019-01-03T15:15:34.605Z,11.13
2019-01-03T15:18:02.022Z,12.77
2019-01-03T15:20:29.472Z,7.23
2019-01-03T15:22:56.878Z,8.57
2019-01-03T15:25:24.265Z,9.73
2019-01-03T15:27:51.704Z,11.07
2019-01-03T15:30:19.141Z,11.87
2019-01-03T15:32:46.570Z,10.23
2019-01-03T15:35:13.972Z,7.40
2019-01-03T15:37:41.400Z,7.97
2019-01-03T15:40:08.846Z,9.63
2019-01-03T15:42:36.200Z,10.13
2019-01-03T15:45:03.632Z,6.27
2019-01-03T15:47:31.024Z,8.35
2019-01-03T15:49:58.494Z,10.93
2019-01-03T15:52:25.901Z,7.43
2019-01-03T15:54:53.336Z,10.47
2019-01-03T15:57:20.739Z,14.53
2019-01-03T15:59:48.187Z,14.77
2019-01-03T16:02:15.588Z,10.67
2019-01-03T16:04:42.987Z,9.60
2019-01-03T16:07:10.385Z,11.23
2019-01-03T16:09:37.801Z,11.77
2019-01-03T16:12:05.229Z,11.03
2019-01-03T16:14:32.624Z,11.50
2019-01-03T16:17:00.074Z,10.27
2019-01-03T16:19:27.488Z,10.37
2019-01-03T16:21:54.882Z,7.80
2019-01-03T16:24:22.312Z,12.27
2019-01-03T16:26:49.731Z,8.63
2019-01-03T16:29:17.143Z,5.63
2019-01-03T16:31:44.546Z,6.40
2019-01-03T16:34:11.970Z,7.20
2019-01-03T16:36:39.405Z,9.17
2019-01-03T16:39:06.791Z,9.30
2019-01-03T16:41:34.192Z,12.30
2019-01-03T16:44:01.736Z,8.00
2019-01-03T16:46:29.210Z,8.07
2019-01-03T16:48:56.869Z,8.03
2019-01-03T16:51:24.347Z,9.55
2019-01-03T16:53:51.766Z,8.50
2019-01-03T16:56:19.235Z,8.90
2019-01-03T16:58:46.930Z,12.63
2019-01-03T17:01:14.303Z,6.73
2019-01-03T17:03:41.733Z,9.37
2019-01-03T17:06:09.160Z,8.73
2019-01-03T17:08:36.574Z,7.33
2019-01-03T17:11:04.017Z,8.57
2019-01-03T17:13:31.418Z,9.70
2019-01-03T17:15:58.855Z,10.77
2019-01-03T17:18:26.315Z,11.53
2019-01-03T17:20:53.722Z,10.20
2019-01-03T17:23:21.140Z,11.10
2019-01-03T17:25:48.589Z,12.97
2019-01-03T17:28:16.002Z,9.83
2019-01-03T17:30:43.411Z,8.07
2019-01-03T17:33:10.864Z,10.33
2019-01-03T17:35:38.282Z,8.23
2019-01-03T17:38:05.684Z,7.87
2019-01-03T17:40:33.125Z,9.83
2019-01-03T17:43:00.545Z,9.33
2019-01-03T17:45:27.983Z,7.67
2019-01-03T17:47:55.419Z,10.60
2019-01-03T17:50:22.834Z,10.13
2019-01-03T17:52:50.246Z,10.77
2019-01-03T17:55:17.684Z,9.90
2019-01-03T17:57:45.092Z,8.53
2019-01-03T18:00:12.554Z,11.60
2019-01-03T18:02:39.989Z,12.63
2019-01-03T18:05:07.391Z,12.07
2019-01-03T18:07:34.823Z,10.37
2019-01-03T18:10:02.223Z,11.47
2019-01-03T18:12:29.656Z,12.07
2019-01-03T18:14:57.134Z,13.77
2019-01-03T18:17:24.511Z,11.33
2019-01-03T18:19:51.951Z,15.60
2019-01-03T18:22:19.380Z,11.80
2019-01-03T18:24:46.796Z,10.93
2019-01-03T18:27:14.237Z,12.93
2019-01-03T18:29:41.647Z,12.47
2019-01-03T18:32:09.086Z,13.50
2019-01-03T18:34:36.518Z,13.83
2019-01-03T18:37:03.932Z,12.63
2019-01-03T18:39:31.399Z,11.90
2019-01-03T18:41:58.796Z,18.80
2019-01-03T18:44:26.240Z,11.30
2019-01-03T18:46:53.633Z,11.57
2019-01-03T18:49:21.080Z,13.83
2019-01-03T18:51:48.525Z,14.13
2019-01-03T18:54:15.947Z,15.07
2019-01-03T18:56:43.360Z,13.53
2019-01-03T18:59:10.757Z,12.27
2019-01-03T19:01:38.213Z,15.77
2019-01-03T19:04:05.611Z,14.03
2019-01-03T19:06:33.082Z,13.77
2019-01-03T19:09:00.503Z,13.60
2019-01-03T19:11:27.937Z,14.27
2019-01-03T19:13:55.341Z,11.73
2019-01-03T19:16:22.769Z,15.20
2019-01-03T19:18:50.158Z,19.43
2019-01-03T19:21:17.585Z,13.40
2019-01-03T19:23:45.005Z,16.30
2019-01-03T19:26:12.451Z,15.30
2019-01-03T19:28:39.873Z,15.43
2019-01-03T19:31:07.305Z,15.63
2019-01-03T19:33:34.702Z,15.27
2019-01-03T19:36:02.128Z,17.53
2019-01-03T19:38:29.538Z,16.20
2019-01-03T19:40:56.980Z,19.17
2019-01-03T19:43:24.398Z,18.80
2019-01-03T19:45:51.890Z,17.93
2019-01-03T19:48:19.310Z,16.70
2019-01-03T19:50:46.798Z,20.37
2019-01-03T19:53:14.222Z,17.23
2019-01-03T19:55:41.701Z,21.57
2019-01-03T19:58:09.141Z,17.67
2019-01-03T20:00:36.658Z,19.23
2019-01-03T20:03:04.063Z,17.97
2019-01-03T20:05:31.481Z,17.37
2019-01-03T20:07:58.961Z,21.70
2019-01-03T20:10:26.367Z,16.50
2019-01-03T20:12:53.784Z,18.57
2019-01-03T20:15:21.229Z,20.77
2019-01-03T20:17:48.750Z,15.43
2019-01-03T20:20:16.154Z,23.17
2019-01-03T20:22:43.578Z,15.93
2019-01-03T20:25:11.045Z,16.23
2019-01-03T20:27:38.444Z,15.77
2019-01-03T20:30:05.941Z,19.50
2019-01-03T20:32:33.385Z,13.63
2019-01-03T20:35:00.790Z,18.37
2019-01-03T20:37:28.204Z,20.20
2019-01-03T20:39:55.639Z,15.10
2019-01-03T20:42:23.094Z,22.33
2019-01-03T20:44:50.515Z,18.07
2019-01-03T20:47:17.959Z,15.43
2019-01-03T20:49:45.378Z,16.90
2019-01-03T20:52:12.946Z,19.23
2019-01-03T20:54:40.328Z,18.37
2019-01-03T20:57:07.734Z,21.03
2019-01-03T20:59:35.158Z,18.87
2019-01-03T21:02:02.600Z,19.27
2019-01-03T21:04:30.035Z,21.07
2019-01-03T21:06:57.440Z,19.60
2019-01-03T21:09:24.935Z,23.43
2019-01-03T21:11:52.469Z,22.07
2019-01-03T21:14:19.947Z,24.03
2019-01-03T21:16:47.393Z,26.13
2019-01-03T21:19:14.814Z,25.87
2019-01-03T21:21:42.257Z,23.37
2019-01-03T21:24:09.686Z,21.83
2019-01-03T21:26:37.157Z,25.77
2019-01-03T21:29:04.551Z,26.03
2019-01-03T21:31:31.984Z,27.30
2019-01-03T21:33:59.402Z,25.07
2019-01-03T21:36:26.869Z,29.33
2019-01-03T21:38:54.301Z,23.90
2019-01-03T21:41:21.800Z,25.13
2019-01-03T21:43:49.227Z,34.57
2019-01-03T21:46:16.761Z,31.23
2019-01-03T21:48:44.174Z,26.77
2019-01-03T21:51:11.612Z,28.80
2019-01-03T21:53:39.051Z,33.93
2019-01-03T21:56:06.517Z,27.87
2019-01-03T21:58:34.022Z,28.37
2019-01-03T22:01:01.481Z,32.77
2019-01-03T22:03:28.924Z,31.90
2019-01-03T22:05:56.379Z,25.27
2019-01-03T22:08:23.787Z,30.97
2019-01-03T22:10:51.221Z,29.30
2019-01-03T22:13:18.645Z,33.30
2019-01-03T22:15:46.056Z,29.33
2019-01-03T22:18:13.470Z,31.13
2019-01-03T22:20:40.921Z,34.87
2019-01-03T22:23:08.301Z,34.57
2019-01-03T22:25:35.725Z,30.90
2019-01-03T22:28:03.154Z,34.27
2019-01-03T22:30:30.574Z,32.00
2019-01-03T22:32:57.976Z,30.47
2019-01-03T22:35:25.465Z,31.73
2019-01-03T22:37:52.848Z,30.47
2019-01-03T22:40:20.401Z,33.70
2019-01-03T22:42:47.796Z,41.67
2019-01-03T22:45:15.230Z,38.33
2019-01-03T22:47:42.694Z,37.27
2019-01-03T22:50:10.108Z,36.60
2019-01-03T22:52:37.559Z,39.40
2019-01-03T22:55:04.945Z,32.40
2019-01-03T22:57:32.373Z,35.97
2019-01-03T22:59:59.813Z,37.60
2019-01-03T23:02:27.243Z,34.10
2019-01-03T23:04:54.680Z,38.03
2019-01-03T23:07:22.168Z,39.40
2019-01-03T23:09:49.566Z,39.83
2019-01-03T23:12:17.006Z,38.30
2019-01-03T23:14:44.430Z,37.90
2019-01-03T23:17:11.882Z,46.63
2019-01-03T23:19:39.299Z,45.63
2019-01-03T23:22:06.737Z,34.87
2019-01-03T23:24:34.159Z,39.20
2019-01-03T23:27:01.603Z,41.57
2019-01-03T23:29:29.015Z,45.13
2019-01-03T23:31:56.473Z,38.77
2019-01-03T23:34:28.116Z,42.57
2019-01-03T23:36:51.352Z,44.73
2019-01-03T23:39:18.810Z,42.53
2019-01-03T23:41:46.246Z,45.10
2019-01-03T23:44:13.693Z,46.03
2019-01-03T23:46:41.128Z,44.50
2019-01-03T23:49:08.532Z,46.10
2019-01-03T23:51:35.969Z,47.13
2019-01-03T23:54:03.399Z,39.53
2019-01-03T23:56:30.815Z,49.13
2019-01-03T23:58:58.298Z,54.40
